Time;durP1;ratioP1;P1;durP2;ratioP2;P2;SDS_P1;SDS_P2;PMS_P1;PMS_P2;Temp;Humidity;BMP_temperature;BMP_pressure;BME280_temperature;BME280_humidity;BME280_pressure;Samples;Min_cycle;Max_cycle;Signal;HPM_P1;HPM_P2
2023/03/08 00:01:02;;;;;;;8.68;3.35;;;;;;;-0.18;100.00;98444.78;5071438;28;20028;-77
2023/03/08 00:03:28;;;;;;;8.10;3.45;;;;;;;-0.22;100.00;98438.16;5082492;28;20074;-76
2023/03/08 00:05:54;;;;;;;4.40;2.97;;;;;;;-0.23;100.00;98436.53;5070800;28;20059;-75
2023/03/08 00:08:20;;;;;;;7.28;3.90;;;;;;;-0.23;100.00;98425.31;5071454;28;20131;-77
2023/03/08 00:10:45;;;;;;;10.88;4.82;;;;;;;-0.24;100.00;98418.47;5045581;28;20107;-77
2023/03/08 00:13:11;;;;;;;12.95;5.07;;;;;;;-0.25;100.00;98422.81;5068035;28;20040;-77
2023/03/08 00:15:38;;;;;;;10.55;4.40;;;;;;;-0.25;100.00;98417.63;5086828;28;20044;-77
2023/03/08 00:18:05;;;;;;;8.50;3.60;;;;;;;-0.26;100.00;98410.81;5070534;28;20085;-77
2023/03/08 00:20:31;;;;;;;5.85;2.97;;;;;;;-0.32;100.00;98404.31;5071711;28;20085;-77
2023/03/08 00:22:57;;;;;;;5.40;2.88;;;;;;;-0.34;100.00;98402.81;5087642;28;20032;-77
2023/03/08 00:25:23;;;;;;;5.53;3.00;;;;;;;-0.32;100.00;98399.13;5070780;28;20112;-77
2023/03/08 00:27:49;;;;;;;6.97;3.38;;;;;;;-0.31;100.00;98398.19;5066728;28;20040;-77
2023/03/08 00:30:14;;;;;;;7.97;3.58;;;;;;;-0.32;100.00;98388.75;5084392;28;20054;-77
2023/03/08 00:32:40;;;;;;;7.03;3.75;;;;;;;-0.32;100.00;98390.53;5082851;28;20039;-77
2023/03/08 00:35:07;;;;;;;35.33;9.85;;;;;;;-0.30;100.00;98391.22;5085653;28;20056;-77
2023/03/08 00:37:33;;;;;;;26.05;7.18;;;;;;;-0.33;100.00;98383.69;5087114;28;20032;-77
2023/03/08 00:39:58;;;;;;;27.52;7.53;;;;;;;-0.33;100.00;98381.91;5055572;28;20039;-77
2023/03/08 00:42:25;;;;;;;15.55;5.72;;;;;;;-0.35;100.00;98380.41;5081517;28;20044;-77
2023/03/08 00:44:51;;;;;;;10.55;4.05;;;;;;;-0.36;100.00;98379.56;5066792;28;20494;-77
2023/03/08 00:47:17;;;;;;;5.10;3.13;;;;;;;-0.35;100.00;98373.44;5082503;28;20031;-77
2023/03/08 00:49:43;;;;;;;14.77;4.72;;;;;;;-0.34;100.00;98371.66;5067985;28;20158;-77
2023/03/08 00:52:09;;;;;;;28.35;9.93;;;;;;;-0.35;100.00;98365.63;5084802;28;20036;-77
2023/03/08 00:54:36;;;;;;;25.52;8.48;;;;;;;-0.36;100.00;98356.22;5064257;28;20032;-77
2023/03/08 00:57:02;;;;;;;16.02;6.63;;;;;;;-0.33;100.00;98357.72;5081652;28;20029;-77
2023/03/08 00:59:28;;;;;;;11.50;5.40;;;;;;;-0.35;100.00;98344.88;5071349;28;20392;-77
2023/03/08 01:01:55;;;;;;;7.68;4.57;;;;;;;-0.34;100.00;98343.09;5048637;28;20023;-76
2023/03/08 01:04:21;;;;;;;9.82;3.33;;;;;;;-0.33;100.00;98340.38;5081944;28;20720;-77
2023/03/08 01:06:47;;;;;;;5.90;3.40;;;;;;;-0.30;100.00;98339.28;5085714;28;20679;-77
2023/03/08 01:09:13;;;;;;;15.75;2.95;;;;;;;-0.30;100.00;98334.09;5085537;28;20458;-77
2023/03/08 01:11:39;;;;;;;5.35;3.08;;;;;;;-0.34;100.00;98327.53;5088385;28;20040;-77
2023/03/08 01:14:07;;;;;;;7.45;3.78;;;;;;;-0.32;100.00;98325.63;5063080;28;20032;-77
2023/03/08 01:16:35;;;;;;;7.90;4.78;;;;;;;-0.33;100.00;98311.00;5081661;28;20062;-77
2023/03/08 01:19:03;;;;;;;8.25;4.10;;;;;;;-0.34;100.00;98310.19;5081693;28;20107;-77
2023/03/08 01:21:30;;;;;;;7.50;4.28;;;;;;;-0.33;100.00;98304.03;5084915;28;20097;-76
2023/03/08 01:23:57;;;;;;;9.13;3.53;;;;;;;-0.33;100.00;98298.00;5081982;28;20028;-77
2023/03/08 01:26:25;;;;;;;8.55;4.35;;;;;;;-0.30;100.00;98300.34;5068512;28;20392;-77
2023/03/08 01:28:55;;;;;;;6.82;3.42;;;;;;;-0.29;100.00;98296.81;5063902;28;20047;-77
2023/03/08 01:31:23;;;;;;;6.82;3.75;;;;;;;-0.25;100.00;98293.00;5082189;28;20035;-77
2023/03/08 01:33:51;;;;;;;9.88;3.83;;;;;;;-0.27;100.00;98290.53;5078225;28;20495;-77
2023/03/08 01:36:20;;;;;;;7.40;3.83;;;;;;;-0.26;100.00;98293.97;5049674;28;20502;-77
2023/03/08 01:38:46;;;;;;;5.53;3.47;;;;;;;-0.25;100.00;98280.03;5066598;28;20085;-77
2023/03/08 01:41:18;;;;;;;5.47;3.85;;;;;;;-0.24;100.00;98283.47;5077193;28;20036;-77
2023/03/08 01:43:45;;;;;;;7.35;3.58;;;;;;;-0.25;100.00;98280.03;5065876;28;20040;-77
2023/03/08 01:46:25;;;;;;;13.27;2.65;;;;;;;-0.21;100.00;98263.25;5064732;28;20031;-77
2023/03/08 01:49:28;;;;;;;6.15;3.15;;;;;;;-0.25;100.00;98269.66;5064967;28;20036;-77
2023/03/08 01:52:02;;;;;;;3.33;2.17;;;;;;;-0.26;100.00;98261.06;5062879;28;20060;-77
2023/03/08 01:54:33;;;;;;;4.47;3.08;;;;;;;-0.23;100.00;98246.16;5094542;28;20511;-76
2023/03/08 01:57:16;;;;;;;4.43;2.80;;;;;;;-0.22;100.00;98245.22;5074965;28;20855;-76
2023/03/08 01:59:43;;;;;;;9.43;3.40;;;;;;;-0.29;100.00;98250.09;5089502;28;20032;-77
2023/03/08 02:02:09;;;;;;;5.90;3.20;;;;;;;-0.33;100.00;98241.72;5077974;28;20399;-77
2023/03/08 02:04:35;;;;;;;5.47;3.40;;;;;;;-0.34;100.00;98241.88;5075683;28;20044;-77
2023/03/08 02:07:02;;;;;;;10.75;2.78;;;;;;;-0.38;100.00;98234.34;5049270;28;20746;-77
2023/03/08 02:09:29;;;;;;;4.93;2.53;;;;;;;-0.39;100.00;98229.28;5088865;28;20064;-76
2023/03/08 02:11:59;;;;;;;5.43;3.22;;;;;;;-0.38;100.00;98221.34;5056291;28;20617;-76
2023/03/08 02:14:25;;;;;;;4.28;2.65;;;;;;;-0.39;100.00;98219.72;5069754;28;20028;-76
2023/03/08 02:16:53;;;;;;;8.27;3.90;;;;;;;-0.38;100.00;98213.56;5058255;28;20040;-76
2023/03/08 02:19:34;;;;;;;11.98;4.15;;;;;;;-0.38;100.00;98208.38;5067948;28;20503;-77
2023/03/08 02:22:10;;;;;;;7.30;3.60;;;;;;;-0.39;100.00;98203.31;5079023;28;20073;-76
2023/03/08 02:24:38;;;;;;;4.43;2.45;;;;;;;-0.43;100.00;98201.94;5081111;28;20043;-77
2023/03/08 02:27:13;;;;;;;6.28;4.15;;;;;;;-0.42;100.00;98194.03;5086820;28;20492;-76
2023/03/08 02:29:39;;;;;;;11.73;5.60;;;;;;;-0.48;100.00;98193.72;5088357;28;20043;-76
2023/03/08 02:32:05;;;;;;;6.90;3.58;;;;;;;-0.45;100.00;98186.50;5085313;28;20039;-76
2023/03/08 02:34:31;;;;;;;7.82;4.75;;;;;;;-0.49;100.00;98186.88;5087651;28;20549;-76
2023/03/08 02:36:57;;;;;;;7.72;5.03;;;;;;;-0.51;100.00;98176.63;5085498;28;20032;-76
2023/03/08 02:39:23;;;;;;;9.60;5.35;;;;;;;-0.52;100.00;98172.38;5089300;28;20035;-77
2023/03/08 02:41:49;;;;;;;8.52;5.22;;;;;;;-0.49;100.00;98172.13;5084731;28;20145;-76
2023/03/08 02:44:14;;;;;;;8.43;5.13;;;;;;;-0.46;100.00;98156.28;5075345;28;20488;-76
2023/03/08 02:46:40;;;;;;;9.82;4.72;;;;;;;-0.45;100.00;98157.13;5080428;28;20032;-76
2023/03/08 02:49:06;;;;;;;10.00;5.25;;;;;;;-0.43;100.00;98152.63;5077998;28;20048;-76
2023/03/08 02:51:32;;;;;;;6.78;3.88;;;;;;;-0.44;100.00;98140.59;5086665;28;20024;-76
2023/03/08 02:53:58;;;;;;;6.93;4.90;;;;;;;-0.44;100.00;98146.59;5069834;28;20447;-76
2023/03/08 02:56:24;;;;;;;13.85;6.00;;;;;;;-0.44;100.00;98143.19;5048767;28;20039;-76
2023/03/08 02:58:50;;;;;;;13.02;5.20;;;;;;;-0.46;100.00;98138.13;5094059;28;20040;-76
2023/03/08 03:01:15;;;;;;;7.38;3.83;;;;;;;-0.44;100.00;98133.63;5079992;28;20506;-77
2023/03/08 03:03:41;;;;;;;6.63;4.68;;;;;;;-0.45;100.00;98134.59;5043619;28;20044;-77
2023/03/08 03:06:18;;;;;;;9.93;5.55;;;;;;;-0.39;100.00;98133.22;5066097;28;20043;-76
2023/03/08 03:08:48;;;;;;;10.20;5.63;;;;;;;-0.43;100.00;98131.88;5086780;28;20047;-77
2023/03/08 03:11:17;;;;;;;7.72;5.65;;;;;;;-0.40;100.00;98134.19;5084342;28;20039;-77
2023/03/08 03:13:43;;;;;;;13.23;5.40;;;;;;;-0.43;100.00;98119.69;5090660;28;20047;-77
2023/03/08 03:16:14;;;;;;;6.95;5.20;;;;;;;-0.36;100.00;98120.00;5084684;28;20030;-76
2023/03/08 03:18:41;;;;;;;10.38;5.63;;;;;;;-0.34;100.00;98112.06;5074976;28;20087;-77
2023/03/08 03:21:11;;;;;;;8.82;5.55;;;;;;;-0.32;100.00;98105.78;5089186;28;20119;-77
2023/03/08 03:23:37;;;;;;;12.15;6.28;;;;;;;-0.29;100.00;98110.72;5065837;28;20028;-77
2023/03/08 03:26:09;;;;;;;13.68;5.82;;;;;;;-0.28;100.00;98106.34;5072028;28;20169;-77
2023/03/08 03:28:36;;;;;;;6.20;3.58;;;;;;;-0.32;100.00;98108.38;5077495;28;20400;-76
2023/03/08 03:31:18;;;;;;;8.90;4.90;;;;;;;-0.31;100.00;98101.41;5090854;28;20035;-76
2023/03/08 03:33:45;;;;;;;7.85;5.28;;;;;;;-0.30;100.00;98106.47;5091768;28;20074;-77
2023/03/08 03:36:13;;;;;;;11.32;5.95;;;;;;;-0.29;100.00;98100.31;5071422;28;20060;-76
2023/03/08 03:38:39;;;;;;;7.80;3.50;;;;;;;-0.26;100.00;98099.25;5086909;28;20114;-76
2023/03/08 03:41:11;;;;;;;8.00;4.38;;;;;;;-0.24;100.00;98099.13;5084784;28;20035;-76
2023/03/08 03:43:38;;;;;;;9.35;5.22;;;;;;;-0.32;100.00;98097.19;5068993;28;20119;-77
2023/03/08 03:46:11;;;;;;;9.27;4.88;;;;;;;-0.35;100.00;98092.28;5072678;28;20040;-77
2023/03/08 03:48:38;;;;;;;6.85;4.47;;;;;;;-0.40;100.00;98079.69;5072040;28;20125;-77
2023/03/08 03:51:06;;;;;;;8.98;4.03;;;;;;;-0.39;100.00;98078.72;5073884;28;20035;-77
2023/03/08 03:53:34;;;;;;;9.27;4.32;;;;;;;-0.39;100.00;98083.91;5103307;28;20111;-77
2023/03/08 03:56:04;;;;;;;9.73;4.30;;;;;;;-0.37;100.00;98074.22;5073682;28;20123;-76
2023/03/08 03:58:31;;;;;;;7.25;4.18;;;;;;;-0.39;100.00;98070.94;5091403;28;20123;-76
2023/03/08 04:00:58;;;;;;;8.23;5.00;;;;;;;-0.41;100.00;98071.06;5047443;28;20081;-77
2023/03/08 04:03:29;;;;;;;10.02;4.72;;;;;;;-0.40;100.00;98066.72;5090290;28;20048;-76
2023/03/08 04:06:08;;;;;;;6.13;3.90;;;;;;;-0.31;100.00;98065.91;5091705;28;20578;-77
2023/03/08 04:08:41;;;;;;;8.35;4.72;;;;;;;-0.29;100.00;98063.19;5061126;28;20047;-77
2023/03/08 04:11:14;;;;;;;8.27;3.80;;;;;;;-0.24;100.00;98053.22;5080124;28;20024;-77
2023/03/08 04:13:40;;;;;;;5.60;3.78;;;;;;;-0.28;100.00;98046.63;5086083;28;20451;-76
2023/03/08 04:16:15;;;;;;;7.10;3.80;;;;;;;-0.26;100.00;98037.78;5085918;28;20028;-77
2023/03/08 04:18:42;;;;;;;4.68;3.05;;;;;;;-0.32;100.00;98038.28;5089342;28;20042;-76
2023/03/08 04:21:09;;;;;;;4.95;2.83;;;;;;;-0.34;100.00;98039.38;5081414;28;20107;-77
2023/03/08 04:23:35;;;;;;;3.92;2.50;;;;;;;-0.40;100.00;98038.16;5070174;28;20040;-77
2023/03/08 04:26:05;;;;;;;5.30;3.58;;;;;;;-0.37;100.00;98037.91;5086655;28;20103;-76
2023/03/08 04:28:33;;;;;;;5.78;3.63;;;;;;;-0.35;100.00;98035.16;5080907;28;20043;-77
2023/03/08 04:31:00;;;;;;;7.00;3.60;;;;;;;-0.33;100.00;98030.63;5090640;28;20067;-77
2023/03/08 04:33:26;;;;;;;6.97;4.35;;;;;;;-0.34;100.00;98034.19;5062224;28;20066;-77
2023/03/08 04:35:51;;;;;;;7.10;2.95;;;;;;;-0.34;100.00;98031.59;5073269;28;20507;-77
2023/03/08 04:38:20;;;;;;;7.13;3.55;;;;;;;-0.36;100.00;98023.94;5085032;28;20084;-76
2023/03/08 04:41:10;;;;;;;7.45;3.08;;;;;;;-0.31;100.00;98013.16;5071294;28;20044;-77
2023/03/08 04:43:56;;;;;;;5.90;2.58;;;;;;;-0.29;100.00;98012.06;5083340;28;20048;-77
2023/03/08 04:46:31;;;;;;;5.45;3.00;;;;;;;-0.26;100.00;98011.81;4999301;28;20059;-76
2023/03/08 04:48:58;;;;;;;5.80;3.22;;;;;;;-0.21;100.00;98008.81;5082460;28;20090;-76
2023/03/08 04:51:27;;;;;;;6.90;3.22;;;;;;;-0.18;100.00;98010.31;5089421;28;20031;-77
2023/03/08 04:53:56;;;;;;;6.43;2.78;;;;;;;-0.12;100.00;98007.16;5083912;28;20106;-76
2023/03/08 04:56:22;;;;;;;5.28;2.72;;;;;;;-0.08;100.00;97994.75;5080542;28;20174;-77
2023/03/08 04:58:48;;;;;;;3.00;2.30;;;;;;;-0.04;100.00;97998.69;5063365;28;20094;-77
2023/03/08 05:01:21;;;;;;;4.45;2.38;;;;;;;0.01;100.00;98000.88;5097601;28;20043;-77
2023/03/08 05:03:49;;;;;;;4.30;2.05;;;;;;;0.02;100.00;98005.13;5055831;28;20078;-76
2023/03/08 05:06:18;;;;;;;5.57;2.00;;;;;;;-0.01;100.00;97996.66;5065883;28;20086;-77
2023/03/08 05:08:45;;;;;;;5.15;2.53;;;;;;;-0.03;100.00;97988.16;5089712;28;20092;-76
2023/03/08 05:11:18;;;;;;;5.75;2.03;;;;;;;-0.02;100.00;97989.00;5083867;28;20036;-77
2023/03/08 05:13:44;;;;;;;6.97;2.65;;;;;;;-0.06;100.00;97998.00;5094476;28;20063;-77
2023/03/08 05:16:11;;;;;;;3.20;2.05;;;;;;;-0.09;100.00;97991.31;5085858;28;20036;-77
2023/03/08 05:18:37;;;;;;;4.45;1.90;;;;;;;-0.10;100.00;97984.50;5059576;28;20062;-76
2023/03/08 05:21:12;;;;;;;3.35;1.90;;;;;;;-0.12;100.00;97983.81;5082956;28;20028;-76
2023/03/08 05:23:39;;;;;;;3.78;2.47;;;;;;;-0.17;100.00;97984.22;5062452;28;20502;-76
2023/03/08 05:26:07;;;;;;;6.38;2.25;;;;;;;-0.14;100.00;97981.34;5087296;28;20506;-76
2023/03/08 05:28:40;;;;;;;3.78;2.10;;;;;;;-0.14;100.00;97975.31;5072694;28;20452;-76
2023/03/08 05:31:18;;;;;;;4.68;2.05;;;;;;;-0.14;100.00;97970.94;5080015;28;20991;-76
2023/03/08 05:33:48;;;;;;;7.95;1.90;;;;;;;-0.16;100.00;97972.84;5071028;28;20566;-76
2023/03/08 05:36:18;;;;;;;6.22;2.15;;;;;;;-0.18;100.00;97972.19;5073692;28;20556;-76
2023/03/08 05:38:44;;;;;;;3.30;1.92;;;;;;;-0.19;100.00;97969.75;5089565;28;20058;-76
2023/03/08 05:41:12;;;;;;;2.53;1.92;;;;;;;-0.20;100.00;97975.88;5072670;28;20043;-77
2023/03/08 05:43:39;;;;;;;4.63;3.03;;;;;;;-0.24;100.00;97975.34;5066910;28;20044;-76
2023/03/08 05:46:10;;;;;;;6.15;1.60;;;;;;;-0.22;100.00;97975.19;5077598;28;20032;-76
2023/03/08 05:48:38;;;;;;;3.05;1.58;;;;;;;-0.26;100.00;97970.28;5067520;28;20043;-76
2023/03/08 05:51:15;;;;;;;2.10;1.48;;;;;;;-0.21;100.00;97969.03;5083183;28;20032;-77
2023/03/08 05:53:41;;;;;;;3.70;1.67;;;;;;;-0.29;100.00;97965.34;5060824;28;20448;-76
2023/03/08 05:56:08;;;;;;;2.53;1.85;;;;;;;-0.28;100.00;97966.16;5087956;28;20085;-76
2023/03/08 05:58:36;;;;;;;1.55;1.33;;;;;;;-0.27;100.00;97960.84;5072601;28;20060;-76
2023/03/08 06:01:10;;;;;;;3.45;1.60;;;;;;;-0.21;100.00;97956.06;5070249;28;20044;-76
2023/03/08 06:03:36;;;;;;;4.90;1.58;;;;;;;-0.23;100.00;97957.97;5089671;28;20472;-77
2023/03/08 06:06:02;;;;;;;1.25;1.10;;;;;;;-0.21;100.00;97949.09;5088488;28;20042;-77
2023/03/08 06:08:28;;;;;;;5.90;1.20;;;;;;;-0.22;100.00;97950.03;5057646;28;20032;-76
2023/03/08 06:10:54;;;;;;;2.72;1.20;;;;;;;-0.20;100.00;97944.72;5077586;28;20032;-77
2023/03/08 06:13:20;;;;;;;2.10;1.48;;;;;;;-0.24;100.00;97940.75;5085196;28;20035;-77
2023/03/08 06:15:46;;;;;;;1.67;0.93;;;;;;;-0.23;100.00;97945.81;5063756;28;20035;-77
2023/03/08 06:18:12;;;;;;;3.33;1.25;;;;;;;-0.25;100.00;97947.72;5070700;28;20093;-77
2023/03/08 06:20:38;;;;;;;5.93;1.80;;;;;;;-0.23;100.00;97939.78;5068487;28;20036;-77
2023/03/08 06:23:04;;;;;;;2.83;1.30;;;;;;;-0.22;100.00;97952.63;5089047;28;20032;-77
2023/03/08 06:25:30;;;;;;;3.40;1.17;;;;;;;-0.26;100.00;97944.31;5084772;28;20020;-77
2023/03/08 06:27:57;;;;;;;7.00;1.17;;;;;;;-0.24;100.00;97948.53;5080321;28;20071;-77
2023/03/08 06:30:29;;;;;;;2.55;1.20;;;;;;;-0.19;100.00;97943.78;5084269;28;20043;-77
2023/03/08 06:32:56;;;;;;;1.10;0.73;;;;;;;-0.22;100.00;97947.44;5067149;28;20488;-77
2023/03/08 06:35:22;;;;;;;1.55;0.68;;;;;;;-0.22;100.00;97947.44;5085718;28;20411;-77
2023/03/08 06:37:54;;;;;;;3.45;1.20;;;;;;;-0.22;100.00;97957.03;5068335;28;20028;-77
2023/03/08 06:40:20;;;;;;;2.53;0.98;;;;;;;-0.19;100.00;97941.19;5075236;28;20385;-77
2023/03/08 06:42:46;;;;;;;3.65;0.82;;;;;;;-0.17;100.00;97949.63;5081533;28;20039;-77
2023/03/08 06:45:14;;;;;;;5.05;1.10;;;;;;;-0.18;100.00;97953.19;5058334;28;20384;-77
2023/03/08 06:47:40;;;;;;;2.05;0.98;;;;;;;-0.16;100.00;97957.28;5070549;28;20036;-77
2023/03/08 06:50:07;;;;;;;2.78;0.90;;;;;;;-0.15;100.00;97956.34;5070407;28;20031;-77
2023/03/08 06:52:36;;;;;;;4.28;0.93;;;;;;;-0.17;100.00;97958.25;5074212;28;20139;-77
2023/03/08 06:55:04;;;;;;;0.77;0.40;;;;;;;-0.21;100.00;97956.91;5013178;28;20647;-76
2023/03/08 06:57:30;;;;;;;2.40;1.00;;;;;;;-0.21;100.00;97959.50;5088994;28;20032;-77
2023/03/08 06:59:56;;;;;;;2.38;0.80;;;;;;;-0.21;100.00;97962.09;5085468;28;20070;-77
2023/03/08 07:02:22;;;;;;;2.75;0.65;;;;;;;-0.20;100.00;97965.47;5089642;28;20032;-77
2023/03/08 07:04:48;;;;;;;2.55;1.05;;;;;;;-0.19;100.00;97970.53;5088901;28;20067;-77
2023/03/08 07:07:13;;;;;;;5.80;1.25;;;;;;;-0.17;100.00;97965.22;5088858;28;20480;-77
2023/03/08 07:09:39;;;;;;;3.28;0.70;;;;;;;-0.17;100.00;97963.44;5069788;28;20047;-77
2023/03/08 07:12:05;;;;;;;3.38;0.90;;;;;;;-0.18;100.00;97968.78;5084181;28;20119;-77
2023/03/08 07:14:31;;;;;;;2.60;0.82;;;;;;;-0.18;100.00;97968.78;5086051;28;20139;-77
2023/03/08 07:16:57;;;;;;;2.85;0.98;;;;;;;-0.18;100.00;97960.97;5087632;28;20154;-77
2023/03/08 07:19:22;;;;;;;4.28;1.42;;;;;;;-0.17;100.00;97966.03;5070742;28;20059;-76
2023/03/08 07:21:48;;;;;;;3.20;1.38;;;;;;;-0.13;100.00;97966.59;5084994;28;20040;-77
2023/03/08 07:24:14;;;;;;;5.70;1.23;;;;;;;-0.12;100.00;97976.00;5075563;28;20032;-77
2023/03/08 07:26:40;;;;;;;2.58;0.75;;;;;;;-0.13;100.00;97971.78;5087074;28;20036;-77
2023/03/08 07:29:06;;;;;;;2.53;1.20;;;;;;;-0.15;100.00;97974.50;5086994;28;20055;-76
2023/03/08 07:31:35;;;;;;;3.88;0.80;;;;;;;-0.14;100.00;97972.72;5090199;28;20027;-76
2023/03/08 07:34:03;;;;;;;3.63;1.23;;;;;;;-0.09;100.00;97967.13;5088680;28;20056;-77
2023/03/08 07:36:29;;;;;;;2.35;1.00;;;;;;;-0.06;100.00;97964.25;5083037;28;20101;-77
2023/03/08 07:38:55;;;;;;;3.78;1.00;;;;;;;-0.07;100.00;97963.44;5090892;28;20028;-77
2023/03/08 07:41:21;;;;;;;2.78;0.93;;;;;;;-0.05;100.00;97964.09;5083726;28;20564;-77
2023/03/08 07:43:47;;;;;;;3.97;0.98;;;;;;;-0.05;100.00;97961.50;5091435;28;20044;-77
2023/03/08 07:46:16;;;;;;;2.22;0.70;;;;;;;-0.06;100.00;97959.03;5085087;28;20086;-77
2023/03/08 07:48:44;;;;;;;1.77;0.57;;;;;;;-0.02;100.00;97965.63;5085889;28;20059;-76
2023/03/08 07:51:11;;;;;;;2.33;1.00;;;;;;;-0.01;100.00;97959.47;5049190;28;20035;-77
2023/03/08 07:53:37;;;;;;;2.53;0.80;;;;;;;0.02;100.00;97956.59;5086955;28;20032;-77
2023/03/08 07:56:04;;;;;;;2.80;0.55;;;;;;;0.04;100.00;97948.66;5088585;28;20044;-77
2023/03/08 07:58:30;;;;;;;1.08;0.60;;;;;;;0.06;100.00;97957.97;5092423;28;20138;-77
2023/03/08 08:00:55;;;;;;;3.33;0.80;;;;;;;0.08;100.00;97960.44;5090623;28;20535;-77
2023/03/08 08:03:21;;;;;;;3.95;1.13;;;;;;;0.09;100.00;97962.06;5075092;28;20051;-77
2023/03/08 08:05:47;;;;;;;0.77;0.70;;;;;;;0.11;100.00;97954.94;5091273;28;20032;-77
2023/03/08 08:08:13;;;;;;;4.10;1.30;;;;;;;0.16;100.00;97957.94;5089214;28;20032;-77
2023/03/08 08:10:40;;;;;;;2.65;0.90;;;;;;;0.17;100.00;97943.16;5092458;28;20044;-77
2023/03/08 08:13:05;;;;;;;2.17;0.80;;;;;;;0.16;100.00;97947.53;5083229;28;20032;-77
2023/03/08 08:15:31;;;;;;;1.50;0.50;;;;;;;0.23;100.00;97947.81;5067491;28;20085;-77
2023/03/08 08:17:58;;;;;;;2.42;0.50;;;;;;;0.24;100.00;97946.84;5072002;28;20480;-77
2023/03/08 08:20:25;;;;;;;0.82;0.50;;;;;;;0.26;100.00;97947.53;5087757;28;20119;-77
2023/03/08 08:22:52;;;;;;;1.75;0.73;;;;;;;0.31;100.00;97944.50;5094014;28;20526;-77
2023/03/08 08:25:19;;;;;;;8.77;0.88;;;;;;;0.35;100.00;97938.88;5092875;28;20048;-77
2023/03/08 08:27:45;;;;;;;0.65;0.43;;;;;;;0.39;100.00;97941.19;5085538;28;20092;-77
2023/03/08 08:30:13;;;;;;;4.10;1.70;;;;;;;0.45;100.00;97945.84;5094204;28;20036;-77
2023/03/08 08:32:39;;;;;;;2.03;0.70;;;;;;;0.50;100.00;97948.84;5088058;28;20053;-77
2023/03/08 08:35:06;;;;;;;4.45;0.75;;;;;;;0.58;100.00;97940.31;5093865;28;20551;-77
2023/03/08 08:37:33;;;;;;;4.43;0.80;;;;;;;0.63;100.00;97942.50;5098776;28;20039;-77
2023/03/08 08:39:59;;;;;;;2.15;0.60;;;;;;;0.71;100.00;97937.41;5071156;28;20092;-77
2023/03/08 08:42:25;;;;;;;2.95;0.95;;;;;;;0.76;100.00;97934.38;5091775;28;20047;-77
2023/03/08 08:44:52;;;;;;;3.15;1.50;;;;;;;0.84;100.00;97932.72;5092727;28;20455;-76
2023/03/08 08:47:18;;;;;;;3.05;1.02;;;;;;;0.94;100.00;97929.25;5083972;28;20043;-77
2023/03/08 08:49:44;;;;;;;4.65;0.73;;;;;;;0.96;100.00;97915.13;5074768;28;20028;-77
2023/03/08 08:52:10;;;;;;;5.22;0.77;;;;;;;1.06;100.00;97916.84;5092984;28;20048;-77
2023/03/08 08:54:38;;;;;;;1.08;0.57;;;;;;;1.06;100.00;97925.47;5087486;28;20032;-77
2023/03/08 08:57:05;;;;;;;2.85;0.80;;;;;;;1.15;100.00;97915.16;5017932;28;20171;-77
2023/03/08 08:59:31;;;;;;;1.08;0.55;;;;;;;1.18;100.00;97913.06;5091614;28;20052;-77
2023/03/08 09:01:58;;;;;;;2.10;0.57;;;;;;;1.18;100.00;97922.66;5087110;28;20036;-77
2023/03/08 09:04:23;;;;;;;5.78;0.82;;;;;;;1.21;100.00;97922.38;5087358;28;20126;-77
2023/03/08 09:06:49;;;;;;;2.97;0.88;;;;;;;1.23;100.00;97920.44;5088326;28;20067;-77
2023/03/08 09:09:16;;;;;;;1.45;0.50;;;;;;;1.31;100.00;97917.91;5090512;28;20032;-77
2023/03/08 09:11:42;;;;;;;5.53;0.60;;;;;;;1.36;100.00;97923.50;5091396;28;20093;-77
2023/03/08 09:14:08;;;;;;;1.58;0.60;;;;;;;1.43;100.00;97922.91;5065953;28;20036;-77
2023/03/08 09:16:34;;;;;;;1.60;0.50;;;;;;;1.40;100.00;97913.59;5062062;28;20040;-77
2023/03/08 09:19:02;;;;;;;0.93;0.50;;;;;;;1.51;100.00;97914.34;5072889;28;20771;-77
2023/03/08 09:21:29;;;;;;;2.60;0.63;;;;;;;1.51;100.00;97922.16;5090165;28;20036;-77
2023/03/08 09:23:57;;;;;;;2.05;0.70;;;;;;;1.56;100.00;97923.34;5068532;28;20492;-77
2023/03/08 09:26:23;;;;;;;3.15;0.77;;;;;;;1.64;100.00;97920.00;5086551;28;20388;-77
2023/03/08 09:28:48;;;;;;;5.85;0.63;;;;;;;1.78;100.00;97921.28;5089215;28;20307;-77
2023/03/08 09:31:16;;;;;;;4.63;1.10;;;;;;;1.96;100.00;97921.22;5090172;28;20067;-77
2023/03/08 09:33:46;;;;;;;2.10;0.60;;;;;;;2.12;100.00;97921.50;5088944;28;20028;-77
2023/03/08 09:36:11;;;;;;;3.80;1.02;;;;;;;2.25;100.00;97910.66;5095168;28;20028;-77
2023/03/08 09:38:37;;;;;;;2.05;0.70;;;;;;;2.39;100.00;97923.13;5091893;28;20036;-77
2023/03/08 09:41:21;;;;;;;2.35;1.10;;;;;;;2.54;100.00;97923.38;5093365;28;20388;-77
2023/03/08 09:44:09;;;;;;;1.42;0.60;;;;;;;2.65;100.00;97919.69;5077603;28;20081;-77
2023/03/08 09:46:41;;;;;;;2.28;0.50;;;;;;;2.69;100.00;97918.38;5080490;28;20047;-77
2023/03/08 09:49:13;;;;;;;0.20;0.20;;;;;;;2.81;100.00;97928.56;5096332;28;20396;-77
2023/03/08 09:51:44;;;;;;;3.08;0.40;;;;;;;2.54;100.00;97910.34;5093748;28;20043;-77
2023/03/08 09:54:16;;;;;;;2.95;0.40;;;;;;;2.62;95.36;97922.59;5079574;28;20060;-77
2023/03/08 09:56:50;;;;;;;1.75;0.00;;;;;;;2.57;88.67;97923.06;5093758;28;20032;-76
2023/03/08 09:59:33;;;;;;;0.57;0.38;;;;;;;2.47;81.92;97917.97;5090643;28;20032;-76
2023/03/08 10:02:02;;;;;;;2.08;0.10;;;;;;;2.55;95.46;97921.59;5041306;28;20052;-77
2023/03/08 10:04:45;;;;;;;0.20;0.03;;;;;;;2.56;80.12;97916.25;5084527;28;20048;-76
2023/03/08 10:07:26;;;;;;;1.30;0.10;;;;;;;2.66;80.54;97917.91;5063067;28;20032;-77
2023/03/08 10:10:18;;;;;;;1.10;0.40;;;;;;;2.80;87.42;97925.13;5100033;28;20024;-77
2023/03/08 10:13:22;;;;;;;2.72;0.45;;;;;;;2.88;84.34;97926.13;5084963;28;20036;-77
2023/03/08 10:15:50;;;;;;;2.13;0.25;;;;;;;2.76;78.63;97928.19;5085924;28;20032;-76
2023/03/08 10:18:44;;;;;;;0.95;0.20;;;;;;;2.87;85.16;97916.69;5090837;28;20059;-76
2023/03/08 10:21:16;;;;;;;2.40;0.22;;;;;;;2.91;78.78;97918.00;5085156;28;20047;-76
2023/03/08 10:23:44;;;;;;;0.05;0.05;;;;;;;2.68;69.09;97916.75;5091197;28;20162;-79
2023/03/08 10:26:12;;;;;;;0.40;0.20;;;;;;;2.78;72.63;97908.00;5075283;28;20032;-78
2023/03/08 10:28:38;;;;;;;2.15;0.30;;;;;;;2.84;77.53;97909.97;5071229;28;20033;-78
2023/03/08 10:31:23;;;;;;;1.15;0.40;;;;;;;3.00;74.07;97908.38;5084286;28;20024;-78
2023/03/08 10:34:16;;;;;;;0.90;0.30;;;;;;;2.98;74.61;97901.53;5086711;28;20748;-78
2023/03/08 10:37:03;;;;;;;1.00;0.10;;;;;;;2.90;68.48;97908.53;5085298;28;20089;-78
2023/03/08 10:39:29;;;;;;;2.35;0.20;;;;;;;2.87;73.21;97901.84;5075314;28;20024;-78
2023/03/08 10:41:58;;;;;;;0.47;0.05;;;;;;;2.95;72.11;97899.25;5089732;28;20063;-78
2023/03/08 10:44:41;;;;;;;0.63;0.15;;;;;;;2.87;69.00;97903.66;5089508;28;20081;-78
2023/03/08 10:47:18;;;;;;;0.10;0.00;;;;;;;2.88;62.98;97908.69;5060768;28;20040;-78
2023/03/08 10:49:46;;;;;;;5.70;0.17;;;;;;;2.81;64.20;97918.13;5086231;28;20477;-78
2023/03/08 10:52:32;;;;;;;0.10;0.10;;;;;;;2.90;69.76;97917.16;5079465;28;20055;-78
2023/03/08 10:55:04;;;;;;;0.85;0.30;;;;;;;2.94;67.00;97904.63;5081653;28;20033;-78
2023/03/08 10:57:32;;;;;;;0.77;0.05;;;;;;;3.04;68.23;97915.75;5066898;28;20047;-78
2023/03/08 11:00:15;;;;;;;2.15;0.00;;;;;;;2.92;65.28;97896.97;5073932;28;20024;-78
2023/03/08 11:02:40;;;;;;;0.30;0.10;;;;;;;2.92;64.44;97903.97;5089305;28;20050;-78
2023/03/08 11:05:32;;;;;;;0.50;0.13;;;;;;;3.09;65.17;97897.03;5092333;28;20028;-78
2023/03/08 11:07:59;;;;;;;2.55;0.30;;;;;;;3.12;65.30;97893.28;5074292;28;20071;-78
2023/03/08 11:10:28;;;;;;;0.77;0.43;;;;;;;3.23;65.65;97895.59;5077797;28;20039;-78
2023/03/08 11:13:12;;;;;;;0.30;0.25;;;;;;;3.31;65.03;97889.56;5088990;28;20036;-78
2023/03/08 11:15:44;;;;;;;0.00;0.00;;;;;;;3.25;66.23;97904.06;5083103;28;20027;-78
2023/03/08 11:18:31;;;;;;;0.17;0.08;;;;;;;3.37;64.58;97901.13;5082955;28;20032;-78
2023/03/08 11:21:08;;;;;;;1.40;0.30;;;;;;;3.45;64.30;97894.16;5105733;28;20062;-78
2023/03/08 11:23:47;;;;;;;1.23;0.22;;;;;;;3.42;66.67;97891.88;5073140;28;20032;-78
2023/03/08 11:26:36;;;;;;;0.20;0.20;;;;;;;3.46;61.38;97898.38;5090451;28;20032;-78
2023/03/08 11:29:36;;;;;;;0.55;0.35;;;;;;;3.29;66.85;97896.72;5096356;28;20028;-78
2023/03/08 11:32:29;;;;;;;1.40;0.30;;;;;;;3.42;65.03;97883.19;5061061;28;20120;-78
2023/03/08 11:35:06;;;;;;;0.20;0.20;;;;;;;3.41;68.26;97885.00;5095731;28;20407;-77
2023/03/08 11:37:49;;;;;;;0.63;0.30;;;;;;;3.44;67.09;97889.09;5085371;28;20068;-78
2023/03/08 11:40:48;;;;;;;1.95;0.20;;;;;;;3.43;65.58;97884.81;5076648;28;20050;-78